Time;durP1;ratioP1;P1;durP2;ratioP2;P2;SDS_P1;SDS_P2;PMS_P1;PMS_P2;Temp;Humidity;BMP_temperature;BMP_pressure;BME280_temperature;BME280_humidity;BME280_pressure;Samples;Min_cycle;Max_cycle;Signal;HPM_P1;HPM_P2
2022/05/11 00:04:18;;;;;;;9.20;3.72;;;;;;;;;;10368797;28;20522;-57
2022/05/11 00:09:19;;;;;;;10.50;3.45;;;;;;;;;;10368476;28;20113;-57
2022/05/11 00:14:19;;;;;;;10.63;3.67;;;;;;;;;;10368302;28;20117;-57
2022/05/11 00:19:21;;;;;;;17.13;3.70;;;;;;;;;;10368686;28;20053;-57
2022/05/11 00:24:22;;;;;;;7.68;3.67;;;;;;;;;;10367963;28;20038;-57
2022/05/11 00:29:22;;;;;;;6.63;3.08;;;;;;;;;;10368369;28;20030;-57
2022/05/11 00:34:23;;;;;;;7.05;3.42;;;;;;;;;;10367562;28;20030;-57
2022/05/11 00:39:24;;;;;;;5.90;3.17;;;;;;;;;;10368296;28;20033;-56
2022/05/11 00:44:24;;;;;;;7.70;3.97;;;;;;;;;;10367000;28;20045;-57
2022/05/11 00:49:38;;;;;;;6.95;3.42;;;;;;;;;;10367850;28;20029;-57
2022/05/11 00:54:45;;;;;;;5.38;3.10;;;;;;;;;;10367451;28;20121;-57
2022/05/11 00:59:50;;;;;;;7.40;3.30;;;;;;;;;;10367808;28;20500;-57
2022/05/11 01:04:56;;;;;;;7.75;3.08;;;;;;;;;;10367146;28;20414;-57
2022/05/11 01:09:57;;;;;;;6.18;3.13;;;;;;;;;;10363972;28;20037;-57
2022/05/11 01:15:00;;;;;;;4.90;3.08;;;;;;;;;;10366959;28;20029;-57
2022/05/11 01:20:03;;;;;;;6.50;3.42;;;;;;;;;;10367119;28;20453;-57
2022/05/11 01:25:08;;;;;;;5.47;3.15;;;;;;;;;;10365383;28;20044;-57
2022/05/11 01:30:17;;;;;;;9.02;3.20;;;;;;;;;;10367006;28;20079;-57
2022/05/11 01:36:02;;;;;;;7.50;3.28;;;;;;;;;;10366627;28;20033;-57
2022/05/11 01:41:03;;;;;;;6.72;3.08;;;;;;;;;;10360158;28;20034;-57
2022/05/11 01:46:06;;;;;;;4.10;2.38;;;;;;;;;;10366024;28;20367;-57
2022/05/11 01:51:06;;;;;;;9.60;3.10;;;;;;;;;;10366594;28;20053;-57
2022/05/11 01:56:09;;;;;;;8.50;3.22;;;;;;;;;;10370120;28;20044;-57
2022/05/11 02:01:09;;;;;;;5.38;2.72;;;;;;;;;;10374057;28;20084;-58
2022/05/11 02:11:30;;;;;;;7.15;3.08;;;;;;;;;;10370039;28;20482;-58
2022/05/11 02:16:31;;;;;;;5.63;3.05;;;;;;;;;;10372204;28;20042;-58
2022/05/11 02:21:32;;;;;;;6.30;3.08;;;;;;;;;;10373161;28;20064;-59
2022/05/11 02:26:33;;;;;;;4.43;3.35;;;;;;;;;;10372463;28;20038;-57
2022/05/11 02:31:34;;;;;;;5.68;3.40;;;;;;;;;;10372983;28;20033;-57
2022/05/11 02:36:35;;;;;;;5.20;2.80;;;;;;;;;;10372267;28;20040;-57
2022/05/11 02:41:35;;;;;;;3.05;2.60;;;;;;;;;;10372457;28;20124;-56
2022/05/11 02:46:36;;;;;;;5.05;3.10;;;;;;;;;;10371758;28;20095;-56
2022/05/11 02:51:37;;;;;;;6.55;3.05;;;;;;;;;;10372008;28;20034;-57
2022/05/11 02:56:37;;;;;;;4.90;2.58;;;;;;;;;;10371559;28;20018;-56
2022/05/11 03:01:38;;;;;;;3.67;2.58;;;;;;;;;;10371750;28;20030;-56
2022/05/11 03:06:39;;;;;;;5.53;2.72;;;;;;;;;;10369809;28;20137;-56
2022/05/11 03:11:39;;;;;;;4.10;2.80;;;;;;;;;;10371030;28;20394;-56
2022/05/11 03:16:40;;;;;;;4.25;2.65;;;;;;;;;;10370087;28;20045;-56
2022/05/11 03:21:41;;;;;;;5.72;2.58;;;;;;;;;;10369913;28;20188;-56
2022/05/11 03:26:42;;;;;;;4.40;2.45;;;;;;;;;;10370520;28;20037;-56
2022/05/11 03:34:36;;;;;;;3.72;2.38;;;;;;;;;;10370009;28;20029;-56
2022/05/11 03:37:10;;;;;;;7.57;2.53;;;;;;;;;;10370157;28;20038;-57
2022/05/11 03:42:15;;;;;;;5.28;2.63;;;;;;;;;;10369781;28;20565;-57
2022/05/11 03:47:15;;;;;;;4.57;2.30;;;;;;;;;;10369769;28;20042;-58
2022/05/11 03:52:18;;;;;;;3.22;2.50;;;;;;;;;;10369224;28;20022;-58
2022/05/11 03:57:18;;;;;;;2.80;2.33;;;;;;;;;;10369450;28;20048;-57
2022/05/11 04:02:19;;;;;;;3.35;2.45;;;;;;;;;;10369094;28;20037;-57
2022/05/11 04:07:19;;;;;;;2.55;2.35;;;;;;;;;;10369000;28;20030;-58
2022/05/11 04:12:20;;;;;;;4.30;2.80;;;;;;;;;;10368351;28;20033;-58
2022/05/11 04:17:20;;;;;;;5.97;2.50;;;;;;;;;;10368475;28;20080;-58
2022/05/11 04:22:21;;;;;;;3.58;2.70;;;;;;;;;;10362116;28;20414;-58
2022/05/11 04:27:23;;;;;;;4.07;2.42;;;;;;;;;;10367107;28;20052;-58
2022/05/11 04:32:23;;;;;;;3.03;2.40;;;;;;;;;;10368011;28;20037;-58
2022/05/11 04:37:24;;;;;;;7.60;2.67;;;;;;;;;;10367985;28;20044;-58
2022/05/11 04:42:25;;;;;;;6.25;2.65;;;;;;;;;;10367090;28;20037;-58
2022/05/11 04:47:25;;;;;;;2.65;2.42;;;;;;;;;;10367527;28;20489;-58
2022/05/11 04:52:26;;;;;;;4.18;2.28;;;;;;;;;;10367419;28;20029;-58
2022/05/11 04:57:27;;;;;;;3.35;2.20;;;;;;;;;;10341664;28;20030;-58
2022/05/11 05:02:27;;;;;;;3.75;2.50;;;;;;;;;;10333415;28;20022;-58
2022/05/11 05:07:28;;;;;;;3.53;2.53;;;;;;;;;;10325900;28;20033;-58
2022/05/11 05:12:29;;;;;;;3.10;2.25;;;;;;;;;;10325949;28;20026;-58
2022/05/11 05:17:29;;;;;;;3.25;2.65;;;;;;;;;;10326205;28;20417;-58
2022/05/11 05:22:30;;;;;;;3.70;2.40;;;;;;;;;;10329566;28;20032;-58
2022/05/11 05:27:31;;;;;;;3.88;2.63;;;;;;;;;;10324898;28;20049;-57
2022/05/11 05:32:38;;;;;;;4.47;2.80;;;;;;;;;;10344236;28;20029;-57
2022/05/11 05:37:39;;;;;;;8.10;2.33;;;;;;;;;;10359517;28;20084;-58
2022/05/11 05:42:40;;;;;;;3.38;2.50;;;;;;;;;;10370932;28;20029;-54
2022/05/11 05:47:41;;;;;;;4.43;2.60;;;;;;;;;;10368332;28;20060;-55
2022/05/11 05:52:42;;;;;;;11.75;2.80;;;;;;;;;;10372303;28;20033;-54
2022/05/11 05:57:43;;;;;;;3.67;2.40;;;;;;;;;;10369827;28;20461;-53
2022/05/11 06:02:44;;;;;;;5.75;2.88;;;;;;;;;;10351486;28;20030;-59
2022/05/11 06:07:44;;;;;;;6.13;3.03;;;;;;;;;;10371999;28;20034;-48
2022/05/11 06:12:45;;;;;;;6.03;2.78;;;;;;;;;;10372293;28;20025;-49
2022/05/11 06:17:45;;;;;;;9.15;2.90;;;;;;;;;;10366058;28;20042;-50
2022/05/11 06:22:46;;;;;;;10.25;3.05;;;;;;;;;;10368005;28;20025;-54
2022/05/11 06:27:47;;;;;;;6.97;2.67;;;;;;;;;;10369180;28;20022;-53
2022/05/11 06:32:47;;;;;;;5.43;2.95;;;;;;;;;;10369557;28;20037;-51
2022/05/11 06:37:51;;;;;;;8.63;3.60;;;;;;;;;;10371793;28;20017;-50
2022/05/11 06:42:52;;;;;;;16.00;3.95;;;;;;;;;;10370798;28;20042;-54
2022/05/11 06:47:53;;;;;;;9.32;3.65;;;;;;;;;;10371928;28;20053;-53
2022/05/11 06:52:55;;;;;;;12.48;3.83;;;;;;;;;;10371492;28;20381;-51
2022/05/11 07:03:15;;;;;;;13.07;3.20;;;;;;;;;;10371938;28;20022;-51
2022/05/11 07:08:16;;;;;;;10.93;4.13;;;;;;;;;;10370899;28;20462;-52
2022/05/11 07:13:16;;;;;;;8.93;3.30;;;;;;;;;;10371053;28;20185;-51
2022/05/11 07:18:17;;;;;;;7.45;3.13;;;;;;;;;;10370520;28;20042;-51
2022/05/11 07:23:18;;;;;;;13.60;3.72;;;;;;;;;;10370693;28;20032;-51
2022/05/11 07:28:19;;;;;;;8.63;3.55;;;;;;;;;;10370399;28;20030;-53
2022/05/11 07:33:20;;;;;;;8.60;3.45;;;;;;;;;;10368275;28;20025;-54
2022/05/11 07:38:20;;;;;;;8.20;3.63;;;;;;;;;;10360460;28;20037;-54
2022/05/11 07:43:21;;;;;;;9.90;3.08;;;;;;;;;;10365153;28;20195;-56
2022/05/11 07:48:21;;;;;;;12.80;3.72;;;;;;;;;;10369423;28;20116;-56
2022/05/11 07:53:22;;;;;;;9.65;3.45;;;;;;;;;;10363768;28;20029;-56
2022/05/11 08:03:42;;;;;;;6.93;2.72;;;;;;;;;;10369750;28;20038;-55
2022/05/11 08:08:43;;;;;;;7.82;3.47;;;;;;;;;;10368440;28;20030;-56
2022/05/11 08:13:43;;;;;;;7.75;3.03;;;;;;;;;;10381184;28;20041;-55
2022/05/11 08:18:44;;;;;;;10.75;3.30;;;;;;;;;;10372543;28;20049;-55
2022/05/11 08:23:45;;;;;;;4.65;3.13;;;;;;;;;;10367351;28;20208;-59
2022/05/11 08:28:45;;;;;;;7.18;3.63;;;;;;;;;;10369447;28;20037;-57
2022/05/11 08:33:47;;;;;;;15.82;3.42;;;;;;;;;;10365616;28;20065;-57
2022/05/11 08:38:56;;;;;;;7.20;2.85;;;;;;;;;;10365242;28;20037;-57
2022/05/11 08:44:14;;;;;;;8.18;3.53;;;;;;;;;;10364400;28;20524;-58
2022/05/11 08:49:29;;;;;;;12.05;3.40;;;;;;;;;;10356784;28;20034;-57
2022/05/11 08:54:40;;;;;;;10.27;3.53;;;;;;;;;;10328732;28;20045;-57
2022/05/11 08:59:41;;;;;;;9.95;3.55;;;;;;;;;;10366160;28;20026;-57
2022/05/11 09:04:51;;;;;;;6.25;3.58;;;;;;;;;;10386479;28;20497;-57
2022/05/11 09:09:53;;;;;;;10.32;3.75;;;;;;;;;;10350141;28;20066;-57
2022/05/11 09:14:59;;;;;;;5.18;2.80;;;;;;;;;;10334802;28;20035;-57
2022/05/11 09:20:15;;;;;;;7.28;3.75;;;;;;;;;;10341593;28;20490;-57
2022/05/11 09:25:25;;;;;;;8.32;3.60;;;;;;;;;;10383351;28;20124;-57
2022/05/11 09:30:30;;;;;;;7.53;3.30;;;;;;;;;;10377608;28;20103;-57
2022/05/11 09:35:36;;;;;;;8.70;3.20;;;;;;;;;;10373980;28;20018;-57
2022/05/11 09:41:19;;;;;;;5.90;3.25;;;;;;;;;;10374054;28;20034;-57
2022/05/11 09:46:34;;;;;;;5.10;3.30;;;;;;;;;;10374013;28;20038;-57
2022/05/11 09:51:55;;;;;;;10.45;3.45;;;;;;;;;;10374271;28;20218;-57
2022/05/11 09:57:02;;;;;;;7.70;3.38;;;;;;;;;;10373853;28;20037;-57
2022/05/11 10:02:31;;;;;;;6.35;2.95;;;;;;;;;;10392053;28;20495;-51
2022/05/11 10:07:45;;;;;;;;;;;;;;;;;;10388025;28;20044;-52
2022/05/11 10:12:47;;;;;;;10.65;3.30;;;;;;;;;;10373639;28;19913;-52
2022/05/11 10:23:39;;;;;;;5.47;3.38;;;;;;;;;;10372956;28;20026;-48
2022/05/11 10:28:54;;;;;;;9.40;3.78;;;;;;;;;;10363633;28;20040;-48
2022/05/11 10:34:26;;;;;;;6.53;3.38;;;;;;;;;;10364910;28;20034;-48
2022/05/11 10:39:43;;;;;;;6.75;3.63;;;;;;;;;;10383541;28;20438;-49
2022/05/11 10:45:08;;;;;;;5.68;3.63;;;;;;;;;;10367595;28;20532;-48
2022/05/11 10:50:31;;;;;;;6.03;3.45;;;;;;;;;;10371563;28;20501;-48
2022/05/11 10:56:05;;;;;;;6.10;3.72;;;;;;;;;;10367640;28;20026;-48
2022/05/11 11:01:12;;;;;;;15.07;4.13;;;;;;;;;;10349629;28;20165;-52
2022/05/11 11:12:49;;;;;;;10.25;4.30;;;;;;;;;;10365910;28;20041;-54
2022/05/11 11:17:51;;;;;;;9.38;4.40;;;;;;;;;;10366352;28;20052;-52
2022/05/11 11:23:27;;;;;;;7.00;3.78;;;;;;;;;;10377026;28;20017;-54
2022/05/11 11:28:51;;;;;;;7.43;3.97;;;;;;;;;;10350898;28;20029;-52
2022/05/11 11:33:54;;;;;;;10.95;4.18;;;;;;;;;;10327853;28;20072;-54
2022/05/11 11:38:59;;;;;;;14.52;4.40;;;;;;;;;;10362080;28;20104;-54
2022/05/11 11:44:36;;;;;;;7.13;4.50;;;;;;;;;;10369032;28;20033;-52
2022/05/11 11:49:36;;;;;;;6.77;4.53;;;;;;;;;;10369093;28;20030;-53
2022/05/11 11:54:37;;;;;;;8.00;4.27;;;;;;;;;;10369091;28;20029;-53
2022/05/11 11:59:42;;;;;;;6.47;3.97;;;;;;;;;;10369383;28;20460;-51
2022/05/11 12:05:05;;;;;;;7.40;4.30;;;;;;;;;;10368353;28;20854;-53
2022/05/11 12:15:34;;;;;;;7.15;4.07;;;;;;;;;;10368047;28;20443;-50
2022/05/11 12:20:43;;;;;;;9.20;4.07;;;;;;;;;;10342733;28;20034;-53
2022/05/11 12:25:58;;;;;;;8.75;3.95;;;;;;;;;;10333467;28;20062;-50
2022/05/11 12:30:59;;;;;;;7.78;4.07;;;;;;;;;;10335079;28;20034;-50
2022/05/11 12:36:01;;;;;;;6.97;4.10;;;;;;;;;;10346651;28;20057;-55
2022/05/11 12:41:18;;;;;;;5.60;3.95;;;;;;;;;;10335990;28;20092;-55
2022/05/11 12:46:19;;;;;;;16.02;4.55;;;;;;;;;;10370081;28;20038;-55
2022/05/11 12:51:29;;;;;;;11.93;5.07;;;;;;;;;;10360473;28;20038;-53
2022/05/11 12:56:38;;;;;;;13.90;5.28;;;;;;;;;;10365495;28;20092;-51
2022/05/11 13:01:39;;;;;;;12.00;4.88;;;;;;;;;;10358515;28;20019;-55
2022/05/11 13:06:47;;;;;;;9.77;4.97;;;;;;;;;;10342113;28;20606;-59
2022/05/11 13:11:48;;;;;;;10.07;4.63;;;;;;;;;;10340654;28;20573;-55
2022/05/11 13:16:59;;;;;;;11.77;4.70;;;;;;;;;;10338985;28;20509;-59
2022/05/11 13:22:03;;;;;;;8.85;4.93;;;;;;;;;;10347122;28;20040;-59
2022/05/11 13:27:34;;;;;;;10.68;4.32;;;;;;;;;;10348023;28;20394;-63
2022/05/11 13:32:42;;;;;;;7.70;4.50;;;;;;;;;;10343045;28;20469;-61
2022/05/11 13:37:55;;;;;;;8.88;4.13;;;;;;;;;;10343566;28;20056;-64
2022/05/11 13:42:56;;;;;;;7.38;3.88;;;;;;;;;;10339413;28;20034;-64
2022/05/11 13:48:12;;;;;;;13.20;4.30;;;;;;;;;;10346986;28;20030;-62
2022/05/11 13:53:34;;;;;;;8.15;4.32;;;;;;;;;;10365550;28;20034;-60
2022/05/11 13:58:46;;;;;;;8.40;3.90;;;;;;;;;;10361416;28;20121;-61
2022/05/11 14:03:58;;;;;;;7.13;4.15;;;;;;;;;;10346071;28;20033;-60
2022/05/11 14:09:00;;;;;;;5.20;3.88;;;;;;;;;;10347232;28;20497;-61
2022/05/11 14:14:01;;;;;;;5.60;4.07;;;;;;;;;;10355410;28;20478;-60
2022/05/11 14:19:02;;;;;;;7.35;3.85;;;;;;;;;;10355699;28;20048;-60
2022/05/11 14:24:03;;;;;;;6.93;4.30;;;;;;;;;;10368625;28;20038;-61
2022/05/11 14:29:04;;;;;;;8.15;3.75;;;;;;;;;;10368252;28;20069;-61
2022/05/11 14:34:10;;;;;;;7.85;3.88;;;;;;;;;;10366561;28;20080;-60
2022/05/11 14:39:24;;;;;;;8.40;4.22;;;;;;;;;;10366986;28;20112;-60
2022/05/11 14:44:25;;;;;;;4.07;3.67;;;;;;;;;;10361431;28;20034;-59
2022/05/11 14:49:26;;;;;;;12.85;4.32;;;;;;;;;;10369608;28;20386;-56
2022/05/11 14:54:27;;;;;;;9.65;4.47;;;;;;;;;;10381104;28;20022;-57
2022/05/11 15:04:48;;;;;;;7.57;4.00;;;;;;;;;;10347666;28;20108;-57
2022/05/11 15:09:49;;;;;;;10.73;4.22;;;;;;;;;;10379471;28;20129;-56
2022/05/11 15:14:50;;;;;;;11.20;4.75;;;;;;;;;;10358550;28;20781;-53
2022/05/11 15:19:51;;;;;;;10.35;4.40;;;;;;;;;;10351126;28;20406;-52
2022/05/11 15:24:52;;;;;;;12.63;4.20;;;;;;;;;;10365065;28;20065;-53
2022/05/11 15:29:53;;;;;;;9.93;4.35;;;;;;;;;;10354183;28;20065;-54
2022/05/11 15:34:57;;;;;;;8.05;4.18;;;;;;;;;;10341897;28;20478;-54
2022/05/11 15:39:58;;;;;;;7.10;4.40;;;;;;;;;;10361293;28;20112;-57
2022/05/11 15:44:58;;;;;;;8.95;4.63;;;;;;;;;;10364687;28;20065;-56
2022/05/11 15:50:03;;;;;;;13.82;4.13;;;;;;;;;;10360135;28;20061;-57
2022/05/11 15:55:07;;;;;;;12.77;4.45;;;;;;;;;;10359734;28;20607;-55
2022/05/11 16:00:13;;;;;;;12.48;5.18;;;;;;;;;;10366532;28;20022;-51
2022/05/11 16:05:18;;;;;;;8.85;4.63;;;;;;;;;;10385747;28;20038;-52
2022/05/11 16:10:19;;;;;;;14.95;4.35;;;;;;;;;;10355074;28;20066;-56
2022/05/11 16:15:20;;;;;;;11.60;4.45;;;;;;;;;;10380140;28;20053;-55
2022/05/11 16:20:21;;;;;;;8.23;4.47;;;;;;;;;;10357358;28;20062;-56
2022/05/11 16:25:22;;;;;;;7.32;4.40;;;;;;;;;;10357182;28;20042;-58
2022/05/11 16:30:23;;;;;;;6.10;3.53;;;;;;;;;;10336650;28;20042;-56
2022/05/11 16:35:23;;;;;;;9.75;4.93;;;;;;;;;;10341256;28;20045;-58
2022/05/11 16:40:26;;;;;;;6.15;4.22;;;;;;;;;;10345724;28;20038;-56
2022/05/11 16:45:27;;;;;;;7.40;4.32;;;;;;;;;;10342829;28;20045;-59
2022/05/11 16:50:28;;;;;;;7.53;4.43;;;;;;;;;;10331214;28;20029;-55
2022/05/11 16:55:28;;;;;;;6.03;4.07;;;;;;;;;;10335334;28;20077;-57
2022/05/11 17:00:29;;;;;;;7.47;4.10;;;;;;;;;;10335995;28;20465;-57
2022/05/11 17:05:30;;;;;;;5.82;3.80;;;;;;;;;;10334947;28;20471;-59
2022/05/11 17:10:31;;;;;;;5.95;3.80;;;;;;;;;;10339498;28;20058;-58
2022/05/11 17:15:33;;;;;;;5.45;4.22;;;;;;;;;;10352996;28;20049;-60
2022/05/11 17:20:40;;;;;;;9.57;4.10;;;;;;;;;;10365924;28;20042;-57
2022/05/11 17:25:41;;;;;;;7.70;4.00;;;;;;;;;;10342131;28;20038;-57
2022/05/11 17:30:42;;;;;;;7.35;4.68;;;;;;;;;;10342826;28;20038;-57
2022/05/11 17:35:46;;;;;;;6.38;4.30;;;;;;;;;;10353998;28;20061;-59
2022/05/11 17:40:48;;;;;;;9.18;4.18;;;;;;;;;;10344955;28;20576;-59
2022/05/11 17:45:50;;;;;;;15.43;5.18;;;;;;;;;;10369677;28;20404;-59
2022/05/11 17:50:51;;;;;;;9.50;5.03;;;;;;;;;;10364239;28;20029;-59
2022/05/11 17:55:53;;;;;;;10.02;5.20;;;;;;;;;;10371566;28;20064;-58
2022/05/11 18:00:53;;;;;;;6.45;4.38;;;;;;;;;;10370973;28;20033;-57
2022/05/11 18:05:54;;;;;;;10.32;4.32;;;;;;;;;;10367909;28;20040;-57
2022/05/11 18:10:55;;;;;;;8.02;4.47;;;;;;;;;;10369174;28;20109;-53
2022/05/11 18:15:56;;;;;;;5.70;4.75;;;;;;;;;;10352401;28;20176;-60
2022/05/11 18:20:56;;;;;;;10.05;5.28;;;;;;;;;;10345128;28;20038;-60
2022/05/11 18:25:57;;;;;;;7.32;4.85;;;;;;;;;;10341943;28;20046;-59
2022/05/11 18:30:58;;;;;;;6.60;4.65;;;;;;;;;;10345773;28;20022;-57
2022/05/11 18:35:58;;;;;;;6.60;4.72;;;;;;;;;;10359446;28;20474;-58
2022/05/11 18:40:59;;;;;;;7.15;4.70;;;;;;;;;;10343687;28;20037;-57
2022/05/11 18:46:06;;;;;;;9.13;4.38;;;;;;;;;;10359267;28;20442;-59
2022/05/11 18:51:07;;;;;;;8.02;4.90;;;;;;;;;;10354524;28;20033;-56
2022/05/11 18:56:08;;;;;;;10.25;4.57;;;;;;;;;;10362203;28;20165;-59
2022/05/11 19:01:09;;;;;;;7.20;4.88;;;;;;;;;;10364753;28;20022;-55
2022/05/11 19:06:09;;;;;;;11.38;5.43;;;;;;;;;;10369099;28;20099;-56
2022/05/11 19:11:10;;;;;;;7.25;5.10;;;;;;;;;;10370106;28;20525;-57
2022/05/11 19:16:11;;;;;;;8.98;4.72;;;;;;;;;;10369871;28;20036;-59
2022/05/11 19:21:12;;;;;;;7.82;4.60;;;;;;;;;;10364783;28;20037;-57
2022/05/11 19:26:12;;;;;;;8.77;4.75;;;;;;;;;;10369836;28;20088;-59
2022/05/11 19:31:13;;;;;;;7.93;4.32;;;;;;;;;;10369820;28;20436;-59
2022/05/11 19:36:14;;;;;;;8.52;4.50;;;;;;;;;;10368446;28;20035;-58
2022/05/11 19:41:16;;;;;;;8.60;4.72;;;;;;;;;;10363253;28;20042;-57
2022/05/11 19:46:18;;;;;;;8.00;4.63;;;;;;;;;;10369069;28;20034;-57
2022/05/11 19:51:19;;;;;;;8.98;4.57;;;;;;;;;;10357720;28;20512;-57
2022/05/11 19:56:20;;;;;;;4.75;3.97;;;;;;;;;;10371361;28;20096;-54
2022/05/11 20:01:22;;;;;;;8.30;5.13;;;;;;;;;;10383155;28;20061;-57
2022/05/11 20:06:24;;;;;;;8.25;4.85;;;;;;;;;;10367774;28;20244;-56
2022/05/11 20:11:35;;;;;;;7.68;4.68;;;;;;;;;;10381690;28;20489;-58
2022/05/11 20:16:37;;;;;;;7.82;4.53;;;;;;;;;;10369467;28;20037;-55
2022/05/11 20:21:41;;;;;;;7.45;4.30;;;;;;;;;;10383055;28;20056;-55
2022/05/11 20:26:42;;;;;;;7.55;4.55;;;;;;;;;;10365206;28;20053;-55
2022/05/11 20:37:01;;;;;;;14.20;4.90;;;;;;;;;;10369521;28;20030;-56
2022/05/11 20:42:02;;;;;;;10.65;5.10;;;;;;;;;;10379091;28;20474;-57
2022/05/11 20:47:04;;;;;;;11.68;5.15;;;;;;;;;;10375974;28;20041;-55
2022/05/11 20:52:06;;;;;;;6.78;4.65;;;;;;;;;;10357531;28;20034;-55
2022/05/11 20:57:06;;;;;;;8.27;4.95;;;;;;;;;;10364236;28;20056;-59
2022/05/11 21:02:07;;;;;;;8.60;4.70;;;;;;;;;;10354841;28;20029;-59
2022/05/11 21:07:08;;;;;;;8.10;5.03;;;;;;;;;;10360767;28;20037;-56
2022/05/11 21:12:10;;;;;;;7.65;5.32;;;;;;;;;;10362735;28;20030;-59
2022/05/11 21:17:11;;;;;;;19.50;5.30;;;;;;;;;;10354055;28;20493;-58
2022/05/11 21:22:13;;;;;;;12.32;5.82;;;;;;;;;;10349734;28;20042;-56
2022/05/11 21:27:14;;;;;;;12.40;5.13;;;;;;;;;;10362749;28;20585;-57
2022/05/11 21:32:15;;;;;;;14.88;5.70;;;;;;;;;;10364312;28;20030;-57
2022/05/11 21:37:16;;;;;;;13.20;5.65;;;;;;;;;;10356396;28;20426;-54
2022/05/11 21:42:17;;;;;;;13.30;6.93;;;;;;;;;;10355214;28;20034;-53
2022/05/11 21:47:17;;;;;;;10.25;6.00;;;;;;;;;;10348804;28;20131;-53
2022/05/11 21:52:18;;;;;;;9.90;6.28;;;;;;;;;;10344910;28;20034;-57
2022/05/11 21:57:19;;;;;;;8.65;6.32;;;;;;;;;;10339611;28;20027;-53
2022/05/11 22:02:19;;;;;;;10.23;5.43;;;;;;;;;;10333660;28;20659;-53
2022/05/11 22:07:20;;;;;;;11.27;5.55;;;;;;;;;;10344439;28;20788;-54
2022/05/11 22:12:20;;;;;;;11.85;6.05;;;;;;;;;;10355388;28;20390;-57
2022/05/11 22:17:21;;;;;;;11.73;6.32;;;;;;;;;;10356391;28;20102;-53
2022/05/11 22:22:22;;;;;;;16.15;6.28;;;;;;;;;;10368240;28;20517;-53
2022/05/11 22:27:23;;;;;;;12.88;6.57;;;;;;;;;;10364233;28;20235;-58
2022/05/11 22:32:24;;;;;;;19.42;6.25;;;;;;;;;;10364012;28;20496;-55
2022/05/11 22:37:25;;;;;;;23.40;6.65;;;;;;;;;;10365931;28;20041;-56
2022/05/11 22:42:25;;;;;;;16.23;6.45;;;;;;;;;;10365173;28;20104;-55
2022/05/11 22:47:26;;;;;;;15.35;7.07;;;;;;;;;;10362165;28;20041;-56
2022/05/11 22:52:30;;;;;;;14.48;7.50;;;;;;;;;;10369467;28;20383;-56
2022/05/11 22:57:30;;;;;;;12.98;6.75;;;;;;;;;;10369569;28;20481;-55
2022/05/11 23:02:31;;;;;;;17.25;6.72;;;;;;;;;;10364275;28;20026;-56
2022/05/11 23:07:32;;;;;;;15.98;7.20;;;;;;;;;;10358057;28;20042;-53
2022/05/11 23:12:32;;;;;;;13.07;6.82;;;;;;;;;;10356281;28;20245;-53
2022/05/11 23:17:33;;;;;;;17.67;7.15;;;;;;;;;;10360555;28;20427;-52
2022/05/11 23:22:34;;;;;;;12.18;6.25;;;;;;;;;;10367156;28;20116;-56
2022/05/11 23:27:35;;;;;;;11.30;6.40;;;;;;;;;;10365781;28;20502;-53
2022/05/11 23:32:36;;;;;;;13.20;6.93;;;;;;;;;;10365732;28;20030;-54
2022/05/11 23:37:38;;;;;;;11.93;5.85;;;;;;;;;;10365132;28;20049;-55
2022/05/11 23:42:39;;;;;;;13.80;6.10;;;;;;;;;;10366494;28;20041;-59
2022/05/11 23:47:41;;;;;;;10.68;5.70;;;;;;;;;;10362387;28;20045;-58
2022/05/11 23:52:41;;;;;;;13.52;5.20;;;;;;;;;;10364247;28;20034;-59
2022/05/11 23:57:42;;;;;;;21.35;6.32;;;;;;;;;;10362403;28;20037;-59
